This is the latest recevied weather packets stored in our database for station/object DNO320-13. If no packets are shown the sender has not sent any weather packets the latest 10 day(s).
| Time | Temp. | Humidity | Pressure | Rain* | Wind** | Luminosity | Snow |
|---|---|---|---|---|---|---|---|
| 1788326382 | 12.22° C | 94% | 1027.9 hPa | 0 mm | - | - | - |
| 1788324842 | 12.22° C | 93% | 1027.9 hPa | 0 mm | - | - | - |
| 1788323271 | 11.67° C | 93% | 1027.8 hPa | 0 mm | - | - | - |
| 1788321704 | 11.67° C | 93% | 1027.7 hPa | 0 mm | - | - | - |
| 1788320016 | 12.78° C | 93% | 1027.7 hPa | 0 mm | - | - | - |
| 1788318446 | 12.78° C | 93% | 1027.5 hPa | 0 mm | - | - | - |
| 1788316859 | 12.78° C | 93% | 1027.5 hPa | 0 mm | - | - | - |
| 1788315271 | 12.22° C | 92% | 1027.7 hPa | 0 mm | - | - | - |
| 1788313568 | 12.78° C | 91% | 1027.7 hPa | 0 mm | - | - | - |
| 1788311969 | 13.33° C | 91% | 1027.9 hPa | 0 mm | - | - | - |
| 1788310338 | 13.33° C | 92% | 1027.9 hPa | 0 mm | - | - | - |
| 1788307099 | 14.44° C | 91% | 1027.5 hPa | 0 mm | - | - | - |
| 1788305502 | 15° C | 89% | 1027.7 hPa | 0 mm | - | - | - |
| 1788303917 | 15° C | 87% | 1027.7 hPa | 0 mm | - | - | - |
| 1788302334 | 15° C | 87% | 1027.7 hPa | 0 mm | - | - | - |
| 1788300742 | 15.56° C | 86% | 1027.6 hPa | 0 mm | - | - | - |
| 1788299172 | 16.11° C | 85% | 1027.3 hPa | 0 mm | - | - | - |
| 1788297613 | 16.11° C | 85% | 1027.1 hPa | 0 mm | - | - | - |
| 1788296029 | 16.67° C | 85% | 1027 hPa | 0 mm | - | - | - |
| 1788294312 | 16.67° C | 80% | 1026.6 hPa | - | - | - | - |
| 1788292730 | 16.67° C | 80% | 1026.6 hPa | - | - | - | - |
| 1788291034 | 17.22° C | 74% | 1026.6 hPa | - | - | - | - |
| 1788289382 | 18.33° C | 73% | 1026.6 hPa | 0 mm | - | - | - |
| 1788287722 | 18.33° C | 64% | 1026 hPa | 0 mm | - | - | - |
| 1788286188 | 18.33° C | 64% | 1026 hPa | 0 mm | - | - | - |
* Rain latest hour (hover to see other rain measurements)
** Current wind speed in m/s (hover to see current wind gust speed)